SLVR/VVI METAR and TAF weather

Enter ICAO airport designator
Station Type Date Time Source
SLVR METAR 2021/07/29 02:00 UTC NOAA

SLVR 290200Z 16010KT 9999 BKN025 OVC070 16/M05 Q1027


Station Type Date Time Source
SLVR Decoded METAR 2021/07/29 02:00 UTC NOAA

Viru-Viru, Bolivia (SLVR) 17-38S 063-08W
Jul 28, 2021 - 10:00 PM EDT / 2021.07.29 0200 UTC
Wind: from the SSE (160 degrees) at 12 MPH (10 KT):0
Visibility: greater than 7 mile(s):0
Sky conditions: overcast
Temperature: 60 F (16 C)
Dew Point: 23 F (-5 C)
Relative Humidity: 23%
Pressure (altimeter): 30.33 in. Hg (1027 hPa)
ob: SLVR 290200Z 16010KT 9999 BKN025 OVC070 16/M05 Q1027
cycle: 2

Station Type Date Time Source
SLVR TAF 2021/07/28 18:25 UTC NOAA

TAF SLVR 281510Z 2818/2918 19018G30KT 9999 SCT023 OVC070 TX18/2820Z TN13/2911Z
BECMG 2912/2914 16018G20KT BKN070

Example: see airport list